Mint Hill, North Carolina
Current Conditions -  °F | °C
As of 9:53 PM on Saturday 22 Nov 2014 (Local Time) from KEQY Reporting Station
Clear Clear  
Wind Chill: 41°   Ceiling: Unl
Heat Index: 44°   Visibility: 10mi
Dew Point: 24°   Wind: 6mph
Humidity: 45%   Direction: 40°NE
Pressure: 30.32"   Gusts: NA
Location:  35.17°N, 80.66°W
Report Text: KEQY 230253Z AUTO 04005KT 10SM CLR 07/M04 A3032 RMK AO2 SLP283 T00671044 58009
Loading
Personal Weather Stations






























Interactive Weather Map New forecast layout! Learn more

10-Day Weather Forecast

Advertisements
Track Severe Weather on mobile